createdAt,value
2018-09-24T00:00:27.771Z,0.60
2018-09-24T00:02:56.389Z,0.50
2018-09-24T00:05:25.056Z,1.07
2018-09-24T00:07:53.674Z,0.70
2018-09-24T00:10:29.078Z,0.90
2018-09-24T00:12:57.866Z,0.97
2018-09-24T00:15:26.469Z,0.80
2018-09-24T00:17:55.106Z,0.60
2018-09-24T00:20:23.706Z,0.70
2018-09-24T00:22:52.325Z,0.63
2018-09-24T00:25:20.965Z,0.70
2018-09-24T00:27:49.582Z,0.60
2018-09-24T00:30:18.233Z,0.70
2018-09-24T00:32:46.865Z,0.50
2018-09-24T00:35:15.530Z,0.87
2018-09-24T00:37:44.240Z,0.60
2018-09-24T00:40:13.133Z,0.83
2018-09-24T00:42:42.197Z,1.00
2018-09-24T00:45:10.821Z,1.10
2018-09-24T00:47:39.563Z,0.80
2018-09-24T00:50:08.235Z,1.13
2018-09-24T00:52:36.937Z,0.93
2018-09-24T00:55:05.641Z,1.20
2018-09-24T00:57:34.238Z,1.17
2018-09-24T01:00:02.863Z,1.20
2018-09-24T01:02:31.666Z,1.53
2018-09-24T01:05:00.714Z,1.20
2018-09-24T01:07:29.330Z,1.20
2018-09-24T01:09:57.977Z,0.90
2018-09-24T01:12:26.585Z,1.00
2018-09-24T01:14:55.221Z,1.20
2018-09-24T01:17:23.826Z,1.60
2018-09-24T01:19:52.481Z,1.40
2018-09-24T01:22:21.086Z,1.30
2018-09-24T01:24:49.747Z,1.30
2018-09-24T01:27:18.391Z,1.30
2018-09-24T01:29:47.069Z,1.00
2018-09-24T01:32:15.673Z,1.03
2018-09-24T01:34:44.426Z,1.17
2018-09-24T01:37:13.065Z,1.37
2018-09-24T01:39:41.720Z,1.13
2018-09-24T01:42:10.318Z,1.20
2018-09-24T01:44:38.949Z,1.20
2018-09-24T01:47:07.629Z,1.00
2018-09-24T01:49:36.301Z,1.20
2018-09-24T01:52:05.011Z,1.20
2018-09-24T01:54:33.670Z,1.37
2018-09-24T01:57:02.282Z,1.37
2018-09-24T01:59:30.937Z,1.10
2018-09-24T02:01:59.583Z,1.30
2018-09-24T02:04:28.200Z,1.63
2018-09-24T02:07:02.786Z,1.90
2018-09-24T02:09:31.934Z,1.60
2018-09-24T02:12:06.002Z,1.53
2018-09-24T02:14:34.685Z,1.67
2018-09-24T02:17:03.673Z,1.77
2018-09-24T02:19:32.536Z,1.30
2018-09-24T02:22:01.170Z,1.40
2018-09-24T02:24:29.824Z,1.57
2018-09-24T02:26:58.574Z,1.67
2018-09-24T02:29:27.191Z,1.30
2018-09-24T02:31:55.863Z,1.50
2018-09-24T02:34:27.633Z,1.57
2018-09-24T02:36:56.314Z,1.27
2018-09-24T02:39:24.932Z,1.70
2018-09-24T02:41:54.974Z,1.60
2018-09-24T02:44:24.750Z,1.53
2018-09-24T02:46:53.404Z,1.67
2018-09-24T02:49:22.018Z,1.70
2018-09-24T02:51:50.829Z,1.60
2018-09-24T02:54:19.481Z,1.77
2018-09-24T02:56:51.292Z,1.63
2018-09-24T02:59:20.349Z,1.40
2018-09-24T03:01:49.033Z,1.77
2018-09-24T03:04:17.643Z,2.00
2018-09-24T03:06:46.293Z,1.60
2018-09-24T03:09:16.101Z,1.50
2018-09-24T03:11:45.050Z,1.50
2018-09-24T03:14:13.684Z,1.57
2018-09-24T03:16:42.447Z,1.30
2018-09-24T03:19:11.052Z,1.87
2018-09-24T03:21:39.727Z,1.80
2018-09-24T03:24:08.453Z,1.57
2018-09-24T03:26:41.481Z,1.80
2018-09-24T03:29:15.057Z,1.73
2018-09-24T03:31:43.663Z,1.73
2018-09-24T03:34:14.693Z,1.90
2018-09-24T03:36:43.493Z,2.17
2018-09-24T03:39:12.149Z,1.87
2018-09-24T03:41:40.867Z,2.30
2018-09-24T03:44:10.017Z,2.10
2018-09-24T03:46:38.838Z,2.03
2018-09-24T03:49:10.449Z,2.17
2018-09-24T03:51:39.189Z,2.50
2018-09-24T03:54:08.605Z,2.50
2018-09-24T03:56:37.350Z,2.47
2018-09-24T03:59:06.382Z,2.53
2018-09-24T04:01:41.578Z,2.23
2018-09-24T04:04:15.410Z,3.00
2018-09-24T04:06:49.336Z,2.63
2018-09-24T04:09:23.328Z,2.70
2018-09-24T04:11:57.372Z,2.70
2018-09-24T04:14:31.182Z,2.80
2018-09-24T04:17:05.182Z,3.10
2018-09-24T04:19:39.004Z,3.07
2018-09-24T04:22:13.201Z,3.37
2018-09-24T04:24:46.938Z,3.80
2018-09-24T04:27:21.338Z,3.57
2018-09-24T04:29:55.123Z,3.17
2018-09-24T04:32:29.156Z,3.00
2018-09-24T04:35:03.223Z,3.83
2018-09-24T04:37:37.044Z,3.20
2018-09-24T04:40:11.843Z,3.17
2018-09-24T04:42:45.958Z,3.27
2018-09-24T04:45:20.043Z,3.53
2018-09-24T04:47:54.060Z,3.40
2018-09-24T04:50:27.980Z,3.30
2018-09-24T04:53:02.174Z,3.40
2018-09-24T04:55:35.990Z,2.93
2018-09-24T04:58:09.905Z,3.67
2018-09-24T05:00:43.914Z,4.27
2018-09-24T05:03:17.935Z,3.60
2018-09-24T05:05:51.774Z,3.33
2018-09-24T05:08:25.739Z,3.70
2018-09-24T05:10:59.634Z,3.07
2018-09-24T05:13:33.349Z,3.80
2018-09-24T05:16:07.092Z,3.43
2018-09-24T05:18:40.929Z,3.40
2018-09-24T05:21:14.779Z,3.43
2018-09-24T05:23:48.729Z,4.00
2018-09-24T05:26:22.545Z,4.33
2018-09-24T05:28:56.285Z,4.47
2018-09-24T05:31:30.230Z,4.67
2018-09-24T05:34:04.005Z,4.10
2018-09-24T05:36:37.937Z,3.73
2018-09-24T05:39:14.015Z,3.43
2018-09-24T05:41:48.195Z,3.70
2018-09-24T05:44:22.013Z,4.73
2018-09-24T05:46:55.850Z,4.60
2018-09-24T05:49:29.912Z,4.13
2018-09-24T05:52:03.830Z,4.40
2018-09-24T05:54:37.674Z,4.23
2018-09-24T05:57:11.709Z,3.93
2018-09-24T05:59:45.654Z,3.87
2018-09-24T06:02:19.470Z,3.80
2018-09-24T06:04:53.378Z,4.03
2018-09-24T06:07:27.262Z,4.33
2018-09-24T06:10:01.145Z,4.73
2018-09-24T06:12:35.020Z,4.07
2018-09-24T06:15:08.894Z,4.40
2018-09-24T06:17:42.800Z,4.20
2018-09-24T06:20:16.654Z,4.33
2018-09-24T06:22:50.527Z,4.40
2018-09-24T06:25:24.448Z,4.97
2018-09-24T06:27:58.389Z,4.57
2018-09-24T06:30:32.198Z,4.27
2018-09-24T06:33:06.014Z,5.10
2018-09-24T06:35:39.953Z,4.67
2018-09-24T06:38:13.991Z,4.87
2018-09-24T06:40:47.838Z,4.50
2018-09-24T06:43:21.886Z,4.43
2018-09-24T06:45:55.774Z,4.90
2018-09-24T06:48:29.606Z,5.13
2018-09-24T06:51:03.766Z,4.30
2018-09-24T06:53:37.706Z,4.50
2018-09-24T06:56:11.766Z,4.43
2018-09-24T06:58:45.562Z,4.47
2018-09-24T07:01:19.514Z,4.30
2018-09-24T07:03:53.373Z,4.70
2018-09-24T07:06:27.368Z,4.43
2018-09-24T07:09:01.553Z,4.00
2018-09-24T07:11:42.185Z,4.20
2018-09-24T07:14:16.043Z,5.00
2018-09-24T07:16:50.053Z,5.10
2018-09-24T07:19:23.934Z,4.33
2018-09-24T07:21:57.979Z,5.03
2018-09-24T07:24:31.976Z,4.90
2018-09-24T07:27:05.962Z,4.30
2018-09-24T07:29:39.941Z,3.97
2018-09-24T07:32:13.878Z,4.10
2018-09-24T07:34:47.749Z,4.30
2018-09-24T07:37:21.510Z,4.07
2018-09-24T07:39:55.271Z,4.37
2018-09-24T07:42:29.213Z,4.13
2018-09-24T07:45:02.957Z,4.80
2018-09-24T07:47:36.731Z,4.50
2018-09-24T07:50:10.621Z,4.00
2018-09-24T07:52:44.479Z,4.83
2018-09-24T07:55:18.294Z,4.30
2018-09-24T07:57:52.359Z,3.90
2018-09-24T08:00:26.170Z,3.73
2018-09-24T08:03:00.145Z,3.50
2018-09-24T08:05:34.008Z,4.00
2018-09-24T08:08:08.073Z,3.80
2018-09-24T08:10:41.960Z,4.63
2018-09-24T08:13:15.965Z,3.90
2018-09-24T08:15:49.813Z,3.33
2018-09-24T08:18:23.785Z,3.60
2018-09-24T08:20:57.634Z,3.40
2018-09-24T08:23:31.392Z,3.07
2018-09-24T08:26:05.249Z,3.80
2018-09-24T08:28:39.099Z,3.60
2018-09-24T08:31:12.937Z,3.67
2018-09-24T08:33:46.805Z,4.50
2018-09-24T08:36:20.792Z,3.50
2018-09-24T08:38:54.801Z,3.87
2018-09-24T08:41:28.549Z,3.23
2018-09-24T08:44:02.525Z,3.27
2018-09-24T08:46:36.429Z,2.90
2018-09-24T08:49:10.469Z,3.20
2018-09-24T08:51:44.334Z,3.00
2018-09-24T08:54:18.290Z,3.27
2018-09-24T08:56:52.304Z,3.53
2018-09-24T08:59:26.142Z,3.30
2018-09-24T09:02:00.013Z,3.10
2018-09-24T09:04:33.921Z,3.40
2018-09-24T09:07:07.790Z,2.80
2018-09-24T09:09:41.618Z,3.40
2018-09-24T09:12:15.361Z,3.07
2018-09-24T09:14:49.235Z,2.53
2018-09-24T09:17:23.110Z,2.87
2018-09-24T09:19:57.092Z,3.10
2018-09-24T09:22:30.828Z,3.20
2018-09-24T09:25:04.650Z,3.20
2018-09-24T09:27:38.510Z,2.80
2018-09-24T09:30:13.063Z,3.40
2018-09-24T09:32:47.017Z,2.90
2018-09-24T09:35:20.936Z,2.83
2018-09-24T09:37:54.747Z,2.80
2018-09-24T09:40:28.617Z,2.80
2018-09-24T09:43:02.483Z,3.10
2018-09-24T09:45:36.326Z,2.50
2018-09-24T09:48:10.190Z,2.43
2018-09-24T09:50:44.014Z,2.80
2018-09-24T09:53:17.873Z,3.07
2018-09-24T09:55:51.650Z,2.50
2018-09-24T09:58:25.661Z,3.00
2018-09-24T10:00:59.498Z,2.63
2018-09-24T10:03:33.362Z,2.90
2018-09-24T10:06:07.861Z,2.50
2018-09-24T10:08:41.698Z,2.53
2018-09-24T10:11:15.589Z,2.33
2018-09-24T10:13:49.573Z,3.20
2018-09-24T10:16:23.374Z,2.53
2018-09-24T10:18:57.627Z,2.90
2018-09-24T10:21:31.849Z,3.17
2018-09-24T10:24:05.981Z,2.13
2018-09-24T10:26:40.308Z,2.23
2018-09-24T10:29:14.480Z,2.27
2018-09-24T10:31:48.601Z,2.20
2018-09-24T10:34:22.426Z,2.63
2018-09-24T10:36:56.208Z,1.93
2018-09-24T10:39:30.276Z,2.30
2018-09-24T10:42:04.254Z,1.93
2018-09-24T10:44:38.117Z,2.23
2018-09-24T10:47:12.054Z,2.13
2018-09-24T10:49:46.300Z,2.70
2018-09-24T10:52:20.140Z,2.23
2018-09-24T10:54:54.275Z,2.30
2018-09-24T10:57:28.213Z,2.30
2018-09-24T11:00:02.126Z,2.50
2018-09-24T11:02:35.932Z,2.63
2018-09-24T11:05:09.797Z,2.40
2018-09-24T11:07:43.612Z,2.00
2018-09-24T11:10:17.632Z,2.47
2018-09-24T11:12:51.366Z,2.10
2018-09-24T11:15:25.237Z,2.47
2018-09-24T11:17:59.083Z,2.13
2018-09-24T11:20:33.038Z,2.00
2018-09-24T11:23:06.921Z,1.73
2018-09-24T11:25:40.842Z,2.83
2018-09-24T11:28:14.641Z,2.47
2018-09-24T11:30:48.839Z,2.40
2018-09-24T11:33:22.791Z,2.00
2018-09-24T11:35:56.679Z,2.30
2018-09-24T11:45:40.722Z,2.30
2018-09-24T11:48:14.677Z,2.10
2018-09-24T11:50:48.573Z,1.90
2018-09-24T11:53:22.438Z,2.50
2018-09-24T11:55:56.426Z,2.20
2018-09-24T11:58:31.801Z,3.20
2018-09-24T12:01:08.155Z,3.27
2018-09-24T12:03:41.998Z,2.40
2018-09-24T12:06:19.143Z,2.60
2018-09-24T12:08:53.485Z,2.50
2018-09-24T12:11:28.627Z,2.47
2018-09-24T12:14:04.377Z,2.93
2018-09-24T12:16:38.450Z,1.97
2018-09-24T12:19:12.422Z,2.60
2018-09-24T12:21:46.329Z,1.83
2018-09-24T12:24:20.099Z,1.80
2018-09-24T12:26:54.021Z,2.53
2018-09-24T12:29:27.829Z,2.40
2018-09-24T12:32:01.696Z,1.80
2018-09-24T12:34:35.566Z,1.97
2018-09-24T12:37:09.605Z,2.17
2018-09-24T12:39:50.317Z,2.10
2018-09-24T12:42:24.270Z,2.43
2018-09-24T12:44:58.066Z,1.97
2018-09-24T12:47:34.857Z,2.60
2018-09-24T12:50:09.951Z,1.80
2018-09-24T12:52:44.968Z,2.07
2018-09-24T12:55:19.570Z,1.70
2018-09-24T12:57:53.474Z,1.87
2018-09-24T13:00:29.216Z,2.00
2018-09-24T13:03:04.798Z,1.80
2018-09-24T13:08:22.128Z,1.43
2018-09-24T13:10:57.815Z,1.60
2018-09-24T13:13:32.737Z,2.30
2018-09-24T13:16:06.687Z,2.73
2018-09-24T13:18:40.774Z,2.00
2018-09-24T13:21:14.773Z,1.87
2018-09-24T13:23:49.146Z,1.87
2018-09-24T13:26:23.253Z,2.53
2018-09-24T13:28:59.037Z,1.93
2018-09-24T13:31:34.305Z,1.47
2018-09-24T13:34:14.831Z,1.70
2018-09-24T13:36:48.814Z,2.23
2018-09-24T13:39:22.715Z,2.00
2018-09-24T13:41:56.551Z,1.70
2018-09-24T13:44:32.135Z,1.73
2018-09-24T13:47:06.189Z,2.10
2018-09-24T13:49:41.305Z,2.40
2018-09-24T13:52:15.824Z,1.73
2018-09-24T13:54:52.699Z,1.80
2018-09-24T13:57:27.035Z,1.83
2018-09-24T14:00:00.925Z,1.57
2018-09-24T14:02:35.799Z,2.40
2018-09-24T14:05:11.210Z,1.97
2018-09-24T14:07:45.103Z,2.23
2018-09-24T14:10:20.177Z,2.87
2018-09-24T14:12:54.713Z,2.50
2018-09-24T14:18:08.287Z,1.70
2018-09-24T14:20:42.125Z,2.20
2018-09-24T14:23:16.000Z,1.70
2018-09-24T14:25:49.878Z,2.20
2018-09-24T14:28:23.648Z,2.07
2018-09-24T14:31:04.340Z,1.90
2018-09-24T14:33:38.310Z,2.70
2018-09-24T14:36:12.437Z,2.03
2018-09-24T14:38:46.464Z,2.30
2018-09-24T14:41:20.357Z,1.90
2018-09-24T14:43:54.288Z,2.10
2018-09-24T14:46:28.287Z,2.00
2018-09-24T14:49:02.329Z,1.87
2018-09-24T14:51:36.205Z,1.80
2018-09-24T14:54:10.074Z,2.37
2018-09-24T14:56:43.876Z,1.63
2018-09-24T14:59:17.720Z,1.90
2018-09-24T15:01:51.634Z,1.70
2018-09-24T15:04:25.395Z,1.87
2018-09-24T15:06:59.285Z,2.00
2018-09-24T15:09:33.156Z,1.70
2018-09-24T15:12:07.001Z,2.00
2018-09-24T15:14:40.831Z,1.90
2018-09-24T15:17:14.685Z,1.63
2018-09-24T15:19:48.573Z,1.80
2018-09-24T15:22:23.292Z,1.90
2018-09-24T15:24:57.554Z,1.90
2018-09-24T15:27:31.335Z,1.47
2018-09-24T15:30:12.171Z,1.57
2018-09-24T15:32:45.957Z,2.20
2018-09-24T15:35:19.782Z,2.17
2018-09-24T15:37:53.655Z,3.67
2018-09-24T15:40:27.604Z,2.27
2018-09-24T15:43:01.543Z,2.23
2018-09-24T15:45:35.377Z,1.60
2018-09-24T15:48:09.995Z,2.30
2018-09-24T15:50:43.873Z,2.57
2018-09-24T15:53:17.813Z,2.20
2018-09-24T15:55:51.686Z,2.30
2018-09-24T15:58:26.550Z,4.73
2018-09-24T16:01:00.529Z,2.73
2018-09-24T16:03:34.364Z,2.87
2018-09-24T16:06:08.334Z,8.50
2018-09-24T16:17:21.260Z,5.83
2018-09-24T16:19:55.285Z,6.30
2018-09-24T16:22:29.199Z,4.33
2018-09-24T16:25:03.125Z,3.73
2018-09-24T16:27:37.004Z,5.50
2018-09-24T16:30:11.223Z,2.17
2018-09-24T16:32:45.023Z,2.33
2018-09-24T16:35:18.902Z,10.83
2018-09-24T16:37:52.838Z,2.23
2018-09-24T16:40:26.854Z,5.90
2018-09-24T16:43:00.693Z,2.67
2018-09-24T16:45:34.643Z,6.23
2018-09-24T16:48:08.406Z,5.00
2018-09-24T16:50:42.277Z,2.00
2018-09-24T16:53:16.086Z,2.23
2018-09-24T16:55:49.945Z,1.87
2018-09-24T16:58:23.948Z,2.57
2018-09-24T17:00:57.859Z,1.97
2018-09-24T17:03:31.863Z,2.57
2018-09-24T17:06:05.734Z,2.47
2018-09-24T17:08:39.764Z,2.27
2018-09-24T17:11:13.600Z,1.50
2018-09-24T17:13:47.494Z,2.23
2018-09-24T17:16:22.005Z,2.50
2018-09-24T17:18:56.071Z,2.07
2018-09-24T17:21:29.965Z,1.90
2018-09-24T17:24:05.010Z,3.03
2018-09-24T17:26:38.755Z,1.97
2018-09-24T17:29:12.685Z,2.07
2018-09-24T17:31:46.525Z,1.80
2018-09-24T17:34:20.423Z,2.07
2018-09-24T17:36:54.345Z,1.80
2018-09-24T17:39:28.275Z,2.20
2018-09-24T17:42:03.539Z,2.43
2018-09-24T17:44:38.553Z,1.87
2018-09-24T17:47:13.069Z,1.90
2018-09-24T17:49:47.044Z,1.93
2018-09-24T17:52:20.907Z,2.00
2018-09-24T17:54:54.853Z,2.30
2018-09-24T17:57:28.878Z,2.17
2018-09-24T18:00:02.911Z,1.97
2018-09-24T18:02:36.737Z,3.47
2018-09-24T18:05:10.830Z,2.40
2018-09-24T18:07:44.762Z,2.50
2018-09-24T18:10:18.649Z,2.67
2018-09-24T18:12:52.947Z,2.07
2018-09-24T18:15:26.930Z,2.70
2018-09-24T18:18:01.526Z,2.50
2018-09-24T18:20:35.506Z,2.20
2018-09-24T18:23:09.243Z,2.23
2018-09-24T18:25:43.156Z,2.30
2018-09-24T18:28:17.135Z,2.37
2018-09-24T18:30:51.025Z,2.40
2018-09-24T18:33:31.527Z,3.40
2018-09-24T18:36:05.362Z,4.30
2018-09-24T18:38:39.231Z,4.27
2018-09-24T18:41:13.812Z,3.20
2018-09-24T18:43:47.814Z,3.03
2018-09-24T18:46:21.752Z,2.63
2018-09-24T18:48:55.674Z,3.27
2018-09-24T18:51:29.586Z,2.70
2018-09-24T18:54:03.434Z,2.77
2018-09-24T18:56:37.360Z,3.00
2018-09-24T18:59:11.888Z,3.23
2018-09-24T19:01:46.077Z,2.33
2018-09-24T19:04:19.986Z,2.30
2018-09-24T19:06:53.963Z,2.80
2018-09-24T19:09:27.796Z,2.77
2018-09-24T19:12:01.745Z,2.83
2018-09-24T19:14:35.559Z,2.23
2018-09-24T19:17:09.365Z,2.20
2018-09-24T19:19:43.306Z,2.33
2018-09-24T19:22:17.265Z,2.00
2018-09-24T19:24:51.078Z,1.93
2018-09-24T19:27:24.883Z,3.00
2018-09-24T19:29:58.885Z,2.50
2018-09-24T19:32:32.799Z,2.37
2018-09-24T19:35:06.909Z,2.20
2018-09-24T19:37:40.798Z,2.83
2018-09-24T19:40:14.785Z,2.67
2018-09-24T19:42:48.543Z,2.93
2018-09-24T19:45:22.566Z,3.07
2018-09-24T19:47:56.425Z,3.13
2018-09-24T19:50:30.370Z,3.57
2018-09-24T19:53:04.241Z,2.73
2018-09-24T19:55:38.167Z,2.77
2018-09-24T19:58:12.162Z,2.17
2018-09-24T20:00:46.097Z,2.53
2018-09-24T20:03:20.132Z,2.10
2018-09-24T20:05:54.086Z,2.53
2018-09-24T20:08:27.949Z,2.03
2018-09-24T20:11:01.756Z,2.10
2018-09-24T20:13:35.625Z,2.10
2018-09-24T20:16:09.465Z,2.30
2018-09-24T20:18:43.317Z,2.50
2018-09-24T20:21:17.186Z,2.30
2018-09-24T20:23:51.030Z,2.33
2018-09-24T20:26:24.947Z,2.53
2018-09-24T20:28:58.883Z,2.53
2018-09-24T20:31:32.688Z,2.27
2018-09-24T20:34:06.733Z,2.37
2018-09-24T20:36:40.717Z,2.30
2018-09-24T20:39:14.846Z,2.30
2018-09-24T20:41:48.971Z,2.30
2018-09-24T20:44:22.883Z,2.57
2018-09-24T20:46:56.758Z,2.50
2018-09-24T20:49:30.645Z,2.60
2018-09-24T20:52:04.514Z,2.53
2018-09-24T20:54:38.350Z,2.70
2018-09-24T20:57:12.639Z,2.53
2018-09-24T20:59:46.541Z,2.70
2018-09-24T21:02:20.429Z,2.80
2018-09-24T21:04:54.312Z,3.23
2018-09-24T21:07:28.226Z,2.63
2018-09-24T21:10:02.156Z,2.40
2018-09-24T21:12:35.929Z,2.50
2018-09-24T21:15:09.697Z,3.50
2018-09-24T21:17:43.461Z,2.57
2018-09-24T21:20:17.318Z,3.10
2018-09-24T21:22:51.221Z,2.70
2018-09-24T21:25:25.037Z,2.73
2018-09-24T21:27:58.813Z,2.63
2018-09-24T21:30:32.631Z,2.70
2018-09-24T21:33:06.379Z,2.40
2018-09-24T21:35:40.374Z,2.63
2018-09-24T21:38:14.354Z,3.23
2018-09-24T21:40:55.038Z,2.47
2018-09-24T21:43:29.057Z,2.53
2018-09-24T21:46:03.130Z,2.70
2018-09-24T21:48:37.042Z,2.90
2018-09-24T21:51:10.968Z,3.00
2018-09-24T21:53:44.909Z,3.03
2018-09-24T21:56:18.894Z,2.40
2018-09-24T21:58:52.876Z,2.43
2018-09-24T22:01:26.728Z,2.83
2018-09-24T22:04:00.506Z,3.20
2018-09-24T22:06:34.372Z,2.97
2018-09-24T22:09:08.273Z,2.60
2018-09-24T22:11:42.121Z,2.40
2018-09-24T22:14:15.942Z,2.23
2018-09-24T22:16:49.715Z,2.97
2018-09-24T22:19:23.716Z,2.93
2018-09-24T22:21:57.661Z,2.83
2018-09-24T22:24:31.506Z,2.97
2018-09-24T22:27:05.457Z,3.23
2018-09-24T22:29:39.442Z,4.80
2018-09-24T22:32:13.345Z,2.90
2018-09-24T22:34:47.218Z,3.27
2018-09-24T22:37:21.093Z,2.60
2018-09-24T22:39:54.938Z,2.70
2018-09-24T22:42:28.862Z,2.87
2018-09-24T22:45:02.777Z,2.03
2018-09-24T22:47:36.676Z,2.10
2018-09-24T22:50:10.698Z,2.10
2018-09-24T22:52:44.582Z,2.00
2018-09-24T22:55:18.633Z,1.83
2018-09-24T22:57:52.590Z,1.50
2018-09-24T23:00:26.590Z,1.63
2018-09-24T23:03:00.552Z,2.10
2018-09-24T23:05:34.336Z,2.17
2018-09-24T23:08:08.272Z,2.00
2018-09-24T23:10:49.027Z,2.63
2018-09-24T23:13:22.847Z,1.90
2018-09-24T23:15:56.769Z,2.13
2018-09-24T23:18:30.638Z,2.23
2018-09-24T23:21:04.523Z,2.20
2018-09-24T23:23:38.386Z,2.77
2018-09-24T23:26:12.350Z,2.60
2018-09-24T23:28:46.205Z,2.37
2018-09-24T23:31:19.954Z,2.63
2018-09-24T23:33:53.826Z,2.80
2018-09-24T23:36:27.672Z,2.57
2018-09-24T23:39:01.515Z,2.87
2018-09-24T23:41:35.361Z,2.20
2018-09-24T23:44:09.209Z,2.50
2018-09-24T23:46:43.115Z,2.70
2018-09-24T23:49:17.058Z,2.30
2018-09-24T23:51:50.957Z,3.33
2018-09-24T23:54:24.895Z,2.33
2018-09-24T23:56:58.830Z,2.50
2018-09-24T23:59:32.838Z,1.80
